KSQLKWVI

Guest
Details From KSQL - San Carlos
To KWVI - WATSONVILLE MUNI
Flight Number -
Tags decoded
Created
Modified
Stats Distance 48 nm / 89 km
Max Altitude 0 ft / 0 m
Waypoints 5
Social Downloads 4
Likes 0
Share VATSIM

Download

Looking for another format? Having issues loading an existing format? Contact us
Advertisement - Login to hide

Notes

Requested: KSQL OSI V25 SANTY KWVI

Route

KSQL OSI V25 SANTY KWVI

ID Type Via Altitude Latitude Longitude Leg Dist Tot Dist Heading (true) Name
O KSQL APT - 0 ft / 0 m 37.51173˚ -122.24939˚ - 0 nm - San Carlos
OSI VOR - 0 ft / 0 m 37.39250˚ -122.28131˚ 7 nm 7 nm 192° / 192° WOODSIDE VORTAC
SAPID FIX V25 (AWY-LO) 0 ft / 0 m 37.19131˚ -122.17972˚ 13 nm 20 nm 158° / 158° -
SANTY FIX V25 (AWY-LO) 0 ft / 0 m 36.97924˚ -122.07308˚ 13 nm 34 nm 158° / 158° -
O KWVI APT - 0 ft / 0 m 36.93582˚ -121.78951˚ 13 nm 47 nm 101° / 101° WATSONVILLE MUNI

Altitude Profile

Advertisement - Login to hide

KSQL

Details ICAO KSQL (SQL)
Name San Carlos
Region United States
Timezone America/Los_Angeles (UTC-8.0)
Stats Elevation 5 ft / 2 m (AMSL)
Location 37.511735° -122.249386°
Runways 1
Magnetic Variation 13.420° E

METAR

KSQL 181947Z VRB03KT 10SM FEW200 12/01 A3021

Decode

TAF

Not found

Departure Runways

ID Width Length Bearing (true) Bearing (mag) Surface Threshold Offset Overrun Length
12 75 ft / 23 m 2,619 ft / 798 m 138.39° 124.97° Asphalt 0 ft / 0 m 299 ft / 91 m
30 75 ft / 23 m 2,619 ft / 798 m 318.40° 304.98° Asphalt 0 ft / 0 m 135 ft / 41 m

KWVI

Details ICAO KWVI
Name WATSONVILLE MUNI
Region United States
Timezone America/Los_Angeles (UTC-8.0)
Stats Elevation 163 ft / 50 m (AMSL)
Location 36.935825° -121.789511°
Runways 2
Magnetic Variation 13.224° E

METAR

KWVI 181953Z AUTO 10003KT 10SM CLR 17/M01 A3018 RMK AO2 SLP219 T01671006 $

Decode

TAF

Not found

Destination Runways

ID Width Length Bearing (true) Bearing (mag) Surface Threshold Offset Overrun Length
02 150 ft / 46 m 4,505 ft / 1,373 m 32.21° 18.99° Asphalt 0 ft / 0 m 0 ft / 0 m
08 100 ft / 30 m 3,992 ft / 1,217 m 99.87° 86.65° Asphalt 0 ft / 0 m 0 ft / 0 m
20 150 ft / 46 m 4,505 ft / 1,373 m 212.22° 199.00° Asphalt 590 ft / 180 m 0 ft / 0 m
26 100 ft / 30 m 3,992 ft / 1,217 m 279.87° 266.65° Asphalt 0 ft / 0 m 0 ft / 0 m

Approach Navaids

Runway Type Ident Frequency Range Bearing (true) Bearing (mag) Slope Elevation
02 Localiser IAYN 108.30 MHz 18 nm / 33 km 32.21° 18.99° - 159 ft / 48 m (AMSL)

Popular Alternatives